sensor_id;sensor_type;location;lat;lon;timestamp;pressure;altitude;pressure_sealevel;temperature;humidity
44988;BME280;35735;52.226;21.254;2023-04-26T00:03:56;99424.09;;;7.81;100.00
44988;BME280;35735;52.226;21.254;2023-04-26T00:08:56;99416.03;;;7.84;100.00
44988;BME280;35735;52.226;21.254;2023-04-26T00:13:57;99426.75;;;7.86;100.00
44988;BME280;35735;52.226;21.254;2023-04-26T00:18:58;99429.44;;;7.86;100.00
44988;BME280;35735;52.226;21.254;2023-04-26T00:23:58;99430.31;;;7.88;100.00
44988;BME280;35735;52.226;21.254;2023-04-26T00:29:00;99432.13;;;7.86;100.00
44988;BME280;35735;52.226;21.254;2023-04-26T00:34:01;99442.00;;;7.82;100.00
44988;BME280;35735;52.226;21.254;2023-04-26T00:39:01;99438.47;;;7.71;100.00
44988;BME280;35735;52.226;21.254;2023-04-26T00:44:02;99442.03;;;7.67;100.00
44988;BME280;35735;52.226;21.254;2023-04-26T00:49:02;99452.84;;;7.59;100.00
44988;BME280;35735;52.226;21.254;2023-04-26T00:54:03;99459.13;;;7.50;100.00
44988;BME280;35735;52.226;21.254;2023-04-26T00:59:04;99469.00;;;7.42;100.00
44988;BME280;35735;52.226;21.254;2023-04-26T01:04:04;99477.06;;;7.30;100.00
44988;BME280;35735;52.226;21.254;2023-04-26T01:09:05;99485.16;;;7.20;100.00
44988;BME280;35735;52.226;21.254;2023-04-26T01:14:05;99497.69;;;7.14;100.00
44988;BME280;35735;52.226;21.254;2023-04-26T01:19:07;99513.78;;;7.06;100.00
44988;BME280;35735;52.226;21.254;2023-04-26T01:24:12;99502.16;;;7.04;100.00
44988;BME280;35735;52.226;21.254;2023-04-26T01:29:14;99503.06;;;6.97;100.00
44988;BME280;35735;52.226;21.254;2023-04-26T01:34:15;99503.03;;;6.81;100.00
44988;BME280;35735;52.226;21.254;2023-04-26T01:39:16;99506.63;;;6.74;100.00
44988;BME280;35735;52.226;21.254;2023-04-26T01:44:16;99503.94;;;6.65;100.00
44988;BME280;35735;52.226;21.254;2023-04-26T01:49:17;99504.81;;;6.61;100.00
44988;BME280;35735;52.226;21.254;2023-04-26T01:54:17;99507.50;;;6.62;100.00
44988;BME280;35735;52.226;21.254;2023-04-26T01:59:18;99526.25;;;6.61;100.00
44988;BME280;35735;52.226;21.254;2023-04-26T02:04:19;99532.50;;;6.61;100.00
44988;BME280;35735;52.226;21.254;2023-04-26T02:09:19;99531.62;;;6.64;100.00
44988;BME280;35735;52.226;21.254;2023-04-26T02:14:20;99538.81;;;6.65;100.00
44988;BME280;35735;52.226;21.254;2023-04-26T02:19:20;99545.03;;;6.64;100.00
44988;BME280;35735;52.226;21.254;2023-04-26T02:24:21;99540.56;;;6.66;100.00
44988;BME280;35735;52.226;21.254;2023-04-26T02:29:22;99538.81;;;6.65;100.00
44988;BME280;35735;52.226;21.254;2023-04-26T02:34:22;99552.19;;;6.60;100.00
44988;BME280;35735;52.226;21.254;2023-04-26T02:39:23;99553.06;;;6.58;100.00
44988;BME280;35735;52.226;21.254;2023-04-26T02:44:24;99537.91;;;6.58;100.00
44988;BME280;35735;52.226;21.254;2023-04-26T02:49:24;99544.16;;;6.65;100.00
44988;BME280;35735;52.226;21.254;2023-04-26T02:54:25;99542.34;;;6.61;100.00
44988;BME280;35735;52.226;21.254;2023-04-26T02:59:25;99544.13;;;6.53;100.00
44988;BME280;35735;52.226;21.254;2023-04-26T03:04:26;99539.66;;;6.48;100.00
44988;BME280;35735;52.226;21.254;2023-04-26T03:09:26;99539.66;;;6.50;100.00
44988;BME280;35735;52.226;21.254;2023-04-26T03:14:27;99538.75;;;6.49;100.00
44988;BME280;35735;52.226;21.254;2023-04-26T03:19:27;99540.53;;;6.51;100.00
44988;BME280;35735;52.226;21.254;2023-04-26T03:24:28;99549.50;;;6.56;100.00
44988;BME280;35735;52.226;21.254;2023-04-26T03:29:28;99547.69;;;6.53;100.00
44988;BME280;35735;52.226;21.254;2023-04-26T03:34:29;99559.34;;;6.58;100.00
44988;BME280;35735;52.226;21.254;2023-04-26T03:39:30;99558.44;;;6.64;100.00
44988;BME280;35735;52.226;21.254;2023-04-26T03:44:30;99556.66;;;6.66;100.00
44988;BME280;35735;52.226;21.254;2023-04-26T03:49:31;99560.22;;;6.68;100.00
44988;BME280;35735;52.226;21.254;2023-04-26T03:54:32;99562.03;;;6.71;100.00
44988;BME280;35735;52.226;21.254;2023-04-26T03:59:33;99563.81;;;6.73;100.00
44988;BME280;35735;52.226;21.254;2023-04-26T04:04:34;99560.25;;;6.74;100.00
44988;BME280;35735;52.226;21.254;2023-04-26T04:09:34;99555.78;;;6.75;100.00
44988;BME280;35735;52.226;21.254;2023-04-26T04:14:35;99554.00;;;6.81;100.00
44988;BME280;35735;52.226;21.254;2023-04-26T04:19:36;99558.50;;;6.85;100.00
44988;BME280;35735;52.226;21.254;2023-04-26T04:24:37;99555.81;;;6.85;100.00
44988;BME280;35735;52.226;21.254;2023-04-26T04:29:37;99562.06;;;6.84;100.00
44988;BME280;35735;52.226;21.254;2023-04-26T04:34:38;99560.28;;;6.80;100.00
44988;BME280;35735;52.226;21.254;2023-04-26T04:39:38;99571.91;;;6.85;100.00
44988;BME280;35735;52.226;21.254;2023-04-26T04:44:40;99567.44;;;7.04;100.00
44988;BME280;35735;52.226;21.254;2023-04-26T04:49:40;99570.12;;;7.21;100.00
44988;BME280;35735;52.226;21.254;2023-04-26T04:54:41;99579.97;;;7.41;100.00
44988;BME280;35735;52.226;21.254;2023-04-26T04:59:41;99584.44;;;7.53;100.00
44988;BME280;35735;52.226;21.254;2023-04-26T05:04:42;99588.00;;;7.61;100.00
44988;BME280;35735;52.226;21.254;2023-04-26T05:09:43;99591.56;;;7.78;100.00
44988;BME280;35735;52.226;21.254;2023-04-26T05:14:43;99585.22;;;8.12;100.00
44988;BME280;35735;52.226;21.254;2023-04-26T05:19:44;99595.84;;;8.46;100.00
44988;BME280;35735;52.226;21.254;2023-04-26T05:24:45;99604.63;;;8.82;100.00
44988;BME280;35735;52.226;21.254;2023-04-26T05:29:46;99607.16;;;9.06;100.00
44988;BME280;35735;52.226;21.254;2023-04-26T05:34:46;99611.47;;;9.32;100.00
44988;BME280;35735;52.226;21.254;2023-04-26T05:39:47;99612.34;;;9.33;100.00
44988;BME280;35735;52.226;21.254;2023-04-26T05:44:48;99615.88;;;9.44;100.00
44988;BME280;35735;52.226;21.254;2023-04-26T05:49:48;99619.34;;;9.54;100.00
44988;BME280;35735;52.226;21.254;2023-04-26T05:54:49;99616.50;;;9.72;100.00
44988;BME280;35735;52.226;21.254;2023-04-26T05:59:49;99623.62;;;9.78;100.00
44988;BME280;35735;52.226;21.254;2023-04-26T06:04:50;99622.59;;;9.93;100.00
44988;BME280;35735;52.226;21.254;2023-04-26T06:09:50;99647.66;;;10.01;100.00
44988;BME280;35735;52.226;21.254;2023-04-26T06:14:51;99638.56;;;10.11;100.00
44988;BME280;35735;52.226;21.254;2023-04-26T06:19:51;99659.06;;;10.32;100.00
44988;BME280;35735;52.226;21.254;2023-04-26T06:24:52;99652.00;;;10.17;100.00
44988;BME280;35735;52.226;21.254;2023-04-26T06:29:52;99659.19;;;10.15;100.00
44988;BME280;35735;52.226;21.254;2023-04-26T06:34:53;99662.53;;;10.42;100.00
44988;BME280;35735;52.226;21.254;2023-04-26T06:39:54;99655.16;;;10.60;100.00
44988;BME280;35735;52.226;21.254;2023-04-26T06:44:54;99652.47;;;10.58;100.00
44988;BME280;35735;52.226;21.254;2023-04-26T06:49:55;99656.16;;;10.49;100.00
44988;BME280;35735;52.226;21.254;2023-04-26T06:54:55;99655.38;;;10.41;100.00
44988;BME280;35735;52.226;21.254;2023-04-26T06:59:56;99642.59;;;10.55;99.97
44988;BME280;35735;52.226;21.254;2023-04-26T07:04:57;99653.34;;;10.59;100.00
44988;BME280;35735;52.226;21.254;2023-04-26T07:09:57;99656.81;;;10.70;99.77
44988;BME280;35735;52.226;21.254;2023-04-26T07:14:58;99657.56;;;10.83;98.91
44988;BME280;35735;52.226;21.254;2023-04-26T07:19:58;99662.75;;;10.97;98.62
44988;BME280;35735;52.226;21.254;2023-04-26T07:24:59;99667.44;;;10.81;96.07
44988;BME280;35735;52.226;21.254;2023-04-26T07:29:59;99660.22;;;10.84;95.37
44988;BME280;35735;52.226;21.254;2023-04-26T07:35:00;99666.28;;;11.02;94.52
44988;BME280;35735;52.226;21.254;2023-04-26T07:40:00;99668.75;;;11.17;94.17
44988;BME280;35735;52.226;21.254;2023-04-26T07:45:01;99661.28;;;11.38;94.01
44988;BME280;35735;52.226;21.254;2023-04-26T07:50:02;99673.56;;;11.57;92.74
44988;BME280;35735;52.226;21.254;2023-04-26T07:55:03;99676.13;;;11.66;90.93
44988;BME280;35735;52.226;21.254;2023-04-26T08:00:05;99678.59;;;11.79;89.47
44988;BME280;35735;52.226;21.254;2023-04-26T08:05:06;99689.25;;;11.90;88.56
44988;BME280;35735;52.226;21.254;2023-04-26T08:10:07;99687.94;;;12.15;87.51
44988;BME280;35735;52.226;21.254;2023-04-26T08:15:09;99686.84;;;12.24;87.64
44988;BME280;35735;52.226;21.254;2023-04-26T08:20:10;99689.00;;;12.07;86.14
44988;BME280;35735;52.226;21.254;2023-04-26T08:25:11;99691.78;;;12.00;81.82
44988;BME280;35735;52.226;21.254;2023-04-26T08:30:11;99696.41;;;11.36;84.08
44988;BME280;35735;52.226;21.254;2023-04-26T08:35:12;99708.44;;;11.12;84.33
44988;BME280;35735;52.226;21.254;2023-04-26T08:40:12;99702.66;;;10.71;83.43
44988;BME280;35735;52.226;21.254;2023-04-26T08:45:14;99701.78;;;10.71;85.03
44988;BME280;35735;52.226;21.254;2023-04-26T08:50:19;99712.75;;;10.55;82.16
44988;BME280;35735;52.226;21.254;2023-04-26T08:55:21;99716.44;;;10.45;84.88
44988;BME280;35735;52.226;21.254;2023-04-26T09:00:22;99723.59;;;10.51;85.39
44988;BME280;35735;52.226;21.254;2023-04-26T09:05:23;99724.66;;;10.31;83.49
44988;BME280;35735;52.226;21.254;2023-04-26T09:10:23;99714.94;;;10.13;83.04
44988;BME280;35735;52.226;21.254;2023-04-26T09:15:25;99724.06;;;10.00;84.29
44988;BME280;35735;52.226;21.254;2023-04-26T09:20:28;99733.16;;;9.87;85.03
44988;BME280;35735;52.226;21.254;2023-04-26T09:25:30;99737.72;;;9.77;84.55
44988;BME280;35735;52.226;21.254;2023-04-26T09:30:37;99741.34;;;9.74;85.81
44988;BME280;35735;52.226;21.254;2023-04-26T09:35:40;99739.22;;;10.13;87.05
44988;BME280;35735;52.226;21.254;2023-04-26T09:40:43;99740.00;;;10.28;84.52
44988;BME280;35735;52.226;21.254;2023-04-26T09:45:49;99749.09;;;10.17;83.14
44988;BME280;35735;52.226;21.254;2023-04-26T09:50:55;99738.38;;;10.05;82.19
44988;BME280;35735;52.226;21.254;2023-04-26T10:01:07;99753.03;;;9.73;82.69
44988;BME280;35735;52.226;21.254;2023-04-26T10:06:07;99758.50;;;9.61;83.47
44988;BME280;35735;52.226;21.254;2023-04-26T10:11:08;99758.63;;;9.41;82.88
44988;BME280;35735;52.226;21.254;2023-04-26T10:16:09;99763.16;;;9.31;83.05
44988;BME280;35735;52.226;21.254;2023-04-26T10:21:12;99755.97;;;9.35;83.47
44988;BME280;35735;52.226;21.254;2023-04-26T10:37:08;99766.59;;;9.59;81.32
44988;BME280;35735;52.226;21.254;2023-04-26T10:42:26;99770.16;;;9.64;80.86
44988;BME280;35735;52.226;21.254;2023-04-26T10:47:32;99772.75;;;9.75;80.47
44988;BME280;35735;52.226;21.254;2023-04-26T10:58:00;99782.56;;;9.87;81.39
44988;BME280;35735;52.226;21.254;2023-04-26T11:03:03;99781.66;;;9.87;78.75
44988;BME280;35735;52.226;21.254;2023-04-26T11:13:17;99771.59;;;10.12;79.04
44988;BME280;35735;52.226;21.254;2023-04-26T11:18:19;99783.16;;;10.25;79.03
44988;BME280;35735;52.226;21.254;2023-04-26T11:23:21;99790.38;;;10.26;76.55
44988;BME280;35735;52.226;21.254;2023-04-26T11:28:22;99792.25;;;10.14;75.48
44988;BME280;35735;52.226;21.254;2023-04-26T11:33:23;99792.16;;;10.25;77.47
44988;BME280;35735;52.226;21.254;2023-04-26T11:38:25;99798.31;;;10.44;76.78
44988;BME280;35735;52.226;21.254;2023-04-26T11:43:36;99810.81;;;10.54;75.11
44988;BME280;35735;52.226;21.254;2023-04-26T11:48:38;99815.41;;;10.42;73.83
44988;BME280;35735;52.226;21.254;2023-04-26T11:53:40;99813.62;;;10.41;74.74
44988;BME280;35735;52.226;21.254;2023-04-26T11:58:49;99817.22;;;10.44;74.06
44988;BME280;35735;52.226;21.254;2023-04-26T12:03:52;99819.06;;;10.36;75.61
44988;BME280;35735;52.226;21.254;2023-04-26T12:08:55;99812.78;;;10.34;76.25
44988;BME280;35735;52.226;21.254;2023-04-26T12:13:57;99811.75;;;10.47;75.32
44988;BME280;35735;52.226;21.254;2023-04-26T12:18:58;99810.84;;;10.51;72.52
44988;BME280;35735;52.226;21.254;2023-04-26T12:23:58;99822.59;;;10.44;71.25
44988;BME280;35735;52.226;21.254;2023-04-26T12:28:59;99836.16;;;10.35;72.99
44988;BME280;35735;52.226;21.254;2023-04-26T12:33:59;99835.31;;;10.24;72.81
44988;BME280;35735;52.226;21.254;2023-04-26T12:39:00;99840.81;;;10.08;72.54
44988;BME280;35735;52.226;21.254;2023-04-26T12:44:00;99846.34;;;9.93;73.51
44988;BME280;35735;52.226;21.254;2023-04-26T12:49:01;99852.69;;;9.86;72.79
44988;BME280;35735;52.226;21.254;2023-04-26T12:54:02;99855.44;;;9.73;72.47
44988;BME280;35735;52.226;21.254;2023-04-26T12:59:03;99866.22;;;9.67;72.84
44988;BME280;35735;52.226;21.254;2023-04-26T13:04:03;99861.78;;;9.63;73.01
44988;BME280;35735;52.226;21.254;2023-04-26T13:09:04;99873.50;;;9.56;73.79
44988;BME280;35735;52.226;21.254;2023-04-26T13:14:05;99875.28;;;9.54;73.59
44988;BME280;35735;52.226;21.254;2023-04-26T13:19:05;99881.59;;;9.48;72.76
44988;BME280;35735;52.226;21.254;2023-04-26T13:24:06;99877.13;;;9.45;73.35
44988;BME280;35735;52.226;21.254;2023-04-26T13:29:07;99866.31;;;9.53;73.34
44988;BME280;35735;52.226;21.254;2023-04-26T13:34:07;99875.22;;;9.66;73.03
44988;BME280;35735;52.226;21.254;2023-04-26T13:39:08;99879.69;;;9.70;72.54
44988;BME280;35735;52.226;21.254;2023-04-26T13:44:08;99883.34;;;9.63;71.43
44988;BME280;35735;52.226;21.254;2023-04-26T13:49:09;99886.06;;;9.54;72.64
44988;BME280;35735;52.226;21.254;2023-04-26T13:54:09;99900.44;;;9.59;72.96
44988;BME280;35735;52.226;21.254;2023-04-26T13:59:10;99893.19;;;9.67;73.23
44988;BME280;35735;52.226;21.254;2023-04-26T14:04:11;99904.81;;;9.77;73.35
44988;BME280;35735;52.226;21.254;2023-04-26T14:09:11;99907.50;;;9.78;71.24
44988;BME280;35735;52.226;21.254;2023-04-26T14:14:12;99912.00;;;9.78;72.39
44988;BME280;35735;52.226;21.254;2023-04-26T14:19:12;99912.03;;;9.73;71.76
44988;BME280;35735;52.226;21.254;2023-04-26T14:24:13;99916.53;;;9.74;73.15
44988;BME280;35735;52.226;21.254;2023-04-26T14:29:13;99920.97;;;9.85;73.27
44988;BME280;35735;52.226;21.254;2023-04-26T14:34:14;99931.75;;;9.80;71.89
44988;BME280;35735;52.226;21.254;2023-04-26T14:39:14;99936.34;;;9.58;71.77
44988;BME280;35735;52.226;21.254;2023-04-26T14:44:15;99938.16;;;9.56;72.21
44988;BME280;35735;52.226;21.254;2023-04-26T14:49:15;99942.66;;;9.51;72.32
44988;BME280;35735;52.226;21.254;2023-04-26T14:54:16;99952.53;;;9.52;73.04
44988;BME280;35735;52.226;21.254;2023-04-26T14:59:17;99939.97;;;9.51;73.78
44988;BME280;35735;52.226;21.254;2023-04-26T15:04:17;99948.06;;;9.41;73.19
44988;BME280;35735;52.226;21.254;2023-04-26T15:09:18;99952.56;;;9.36;73.91
44988;BME280;35735;52.226;21.254;2023-04-26T15:14:18;99965.16;;;9.36;74.18
44988;BME280;35735;52.226;21.254;2023-04-26T15:19:19;99959.78;;;9.34;73.83
44988;BME280;35735;52.226;21.254;2023-04-26T15:24:19;99956.19;;;9.29;72.63
44988;BME280;35735;52.226;21.254;2023-04-26T15:29:20;99975.94;;;9.28;74.00
44988;BME280;35735;52.226;21.254;2023-04-26T15:34:20;99964.28;;;9.26;74.29
44988;BME280;35735;52.226;21.254;2023-04-26T15:39:21;99970.53;;;9.25;74.63
44988;BME280;35735;52.226;21.254;2023-04-26T15:44:21;99965.16;;;9.28;75.65
44988;BME280;35735;52.226;21.254;2023-04-26T15:49:23;99969.66;;;9.26;75.37
44988;BME280;35735;52.226;21.254;2023-04-26T15:54:24;99962.47;;;9.25;75.99
44988;BME280;35735;52.226;21.254;2023-04-26T15:59:24;99966.97;;;9.26;76.67
44988;BME280;35735;52.226;21.254;2023-04-26T16:04:25;99968.78;;;9.25;76.29
44988;BME280;35735;52.226;21.254;2023-04-26T16:09:25;99979.53;;;9.24;76.97
44988;BME280;35735;52.226;21.254;2023-04-26T16:14:26;99971.47;;;9.21;77.61
44988;BME280;35735;52.226;21.254;2023-04-26T16:19:26;99975.94;;;9.25;78.02
44988;BME280;35735;52.226;21.254;2023-04-26T16:24:27;99977.75;;;9.21;77.93
44988;BME280;35735;52.226;21.254;2023-04-26T16:29:28;99990.31;;;9.15;77.03
44988;BME280;35735;52.226;21.254;2023-04-26T16:34:28;100003.75;;;9.07;76.63
44988;BME280;35735;52.226;21.254;2023-04-26T16:39:29;99997.50;;;9.00;75.50
44988;BME280;35735;52.226;21.254;2023-04-26T16:44:29;100009.16;;;8.90;76.25
44988;BME280;35735;52.226;21.254;2023-04-26T16:49:30;100008.25;;;8.82;75.55
44988;BME280;35735;52.226;21.254;2023-04-26T16:54:31;100015.44;;;8.78;76.24
44988;BME280;35735;52.226;21.254;2023-04-26T16:59:31;100020.81;;;8.77;76.34
44988;BME280;35735;52.226;21.254;2023-04-26T17:04:32;100023.53;;;8.70;76.59
44988;BME280;35735;52.226;21.254;2023-04-26T17:09:32;100029.78;;;8.59;76.44
44988;BME280;35735;52.226;21.254;2023-04-26T17:14:33;100019.91;;;8.56;77.33
44988;BME280;35735;52.226;21.254;2023-04-26T17:19:34;100027.97;;;8.59;78.05
44988;BME280;35735;52.226;21.254;2023-04-26T17:24:34;100031.56;;;8.60;78.83
44988;BME280;35735;52.226;21.254;2023-04-26T17:29:35;100036.06;;;8.61;79.21
44988;BME280;35735;52.226;21.254;2023-04-26T17:34:35;100036.03;;;8.67;79.77
44988;BME280;35735;52.226;21.254;2023-04-26T17:39:36;100043.22;;;8.65;79.39
44988;BME280;35735;52.226;21.254;2023-04-26T17:44:36;100044.16;;;8.65;79.96
44988;BME280;35735;52.226;21.254;2023-04-26T17:49:37;100041.44;;;8.64;79.76
44988;BME280;35735;52.226;21.254;2023-04-26T17:54:37;100048.59;;;8.63;80.64
44988;BME280;35735;52.226;21.254;2023-04-26T17:59:38;100051.28;;;8.56;80.43
44988;BME280;35735;52.226;21.254;2023-04-26T18:04:38;100058.47;;;8.52;81.38
44988;BME280;35735;52.226;21.254;2023-04-26T18:09:39;100057.53;;;8.50;82.18
44988;BME280;35735;52.226;21.254;2023-04-26T18:14:40;100071.00;;;8.44;82.28
44988;BME280;35735;52.226;21.254;2023-04-26T18:19:41;100075.41;;;8.35;82.73
44988;BME280;35735;52.226;21.254;2023-04-26T18:24:41;100078.97;;;8.30;83.50
44988;BME280;35735;52.226;21.254;2023-04-26T18:29:42;100085.19;;;8.20;84.15
44988;BME280;35735;52.226;21.254;2023-04-26T18:34:42;100086.09;;;8.17;83.59
44988;BME280;35735;52.226;21.254;2023-04-26T18:39:43;100089.66;;;8.14;84.14
44988;BME280;35735;52.226;21.254;2023-04-26T18:44:43;100087.84;;;8.15;84.25
44988;BME280;35735;52.226;21.254;2023-04-26T18:49:44;100091.47;;;8.14;84.15
44988;BME280;35735;52.226;21.254;2023-04-26T18:54:45;100095.00;;;8.08;84.62
44988;BME280;35735;52.226;21.254;2023-04-26T18:59:45;100107.56;;;8.09;84.33
44988;BME280;35735;52.226;21.254;2023-04-26T19:04:46;100108.47;;;8.13;83.87
44988;BME280;35735;52.226;21.254;2023-04-26T19:09:46;100110.22;;;8.08;82.97
44988;BME280;35735;52.226;21.254;2023-04-26T19:14:47;100114.75;;;8.10;83.78
44988;BME280;35735;52.226;21.254;2023-04-26T19:19:50;100112.03;;;8.09;83.65
44988;BME280;35735;52.226;21.254;2023-04-26T19:24:51;100117.41;;;8.06;83.79
44988;BME280;35735;52.226;21.254;2023-04-26T19:29:51;100122.78;;;8.06;84.08
44988;BME280;35735;52.226;21.254;2023-04-26T19:34:52;100120.94;;;8.02;83.94
44988;BME280;35735;52.226;21.254;2023-04-26T19:39:52;100129.00;;;7.98;84.66
44988;BME280;35735;52.226;21.254;2023-04-26T19:44:53;100125.37;;;7.93;84.25
44988;BME280;35735;52.226;21.254;2023-04-26T19:49:54;100131.63;;;7.89;84.20
44988;BME280;35735;52.226;21.254;2023-04-26T19:54:54;100138.81;;;7.90;84.66
44988;BME280;35735;52.226;21.254;2023-04-26T19:59:55;100134.28;;;7.85;85.01
44988;BME280;35735;52.226;21.254;2023-04-26T20:04:55;100127.06;;;7.76;85.16
44988;BME280;35735;52.226;21.254;2023-04-26T20:09:56;100137.75;;;7.65;85.42
44988;BME280;35735;52.226;21.254;2023-04-26T20:14:56;100134.97;;;7.54;85.92
44988;BME280;35735;52.226;21.254;2023-04-26T20:19:57;100130.34;;;7.38;86.37
44988;BME280;35735;52.226;21.254;2023-04-26T20:24:57;100141.00;;;7.24;86.68
44988;BME280;35735;52.226;21.254;2023-04-26T20:29:58;100138.19;;;7.13;86.95
44988;BME280;35735;52.226;21.254;2023-04-26T20:34:58;100140.72;;;6.96;87.19
44988;BME280;35735;52.226;21.254;2023-04-26T20:39:59;100143.25;;;6.82;87.24
44988;BME280;35735;52.226;21.254;2023-04-26T20:45:00;100155.59;;;6.65;87.53
44988;BME280;35735;52.226;21.254;2023-04-26T20:50:00;100148.28;;;6.55;87.67
44988;BME280;35735;52.226;21.254;2023-04-26T20:55:01;100149.09;;;6.46;88.17
44988;BME280;35735;52.226;21.254;2023-04-26T21:00:02;100157.78;;;6.28;88.62
44988;BME280;35735;52.226;21.254;2023-04-26T21:05:03;100156.78;;;6.17;89.00
44988;BME280;35735;52.226;21.254;2023-04-26T21:10:05;100165.47;;;6.00;89.32
44988;BME280;35735;52.226;21.254;2023-04-26T21:15:06;100169.59;;;5.81;89.78
44988;BME280;35735;52.226;21.254;2023-04-26T21:20:07;100172.09;;;5.67;90.54
44988;BME280;35735;52.226;21.254;2023-04-26T21:25:08;100175.38;;;5.51;91.13
44988;BME280;35735;52.226;21.254;2023-04-26T21:30:09;100185.75;;;5.31;91.84
44988;BME280;35735;52.226;21.254;2023-04-26T21:35:10;100184.62;;;5.16;92.37
44988;BME280;35735;52.226;21.254;2023-04-26T21:40:11;100187.78;;;4.95;92.89
44988;BME280;35735;52.226;21.254;2023-04-26T21:45:12;100185.66;;;4.77;93.69
44988;BME280;35735;52.226;21.254;2023-04-26T21:50:12;100201.25;;;4.56;94.13
44988;BME280;35735;52.226;21.254;2023-04-26T21:55:13;100209.00;;;4.42;94.82
44988;BME280;35735;52.226;21.254;2023-04-26T22:00:14;100214.09;;;4.30;95.44
44988;BME280;35735;52.226;21.254;2023-04-26T22:05:14;100213.78;;;4.17;96.03
44988;BME280;35735;52.226;21.254;2023-04-26T22:10:15;100224.13;;;4.02;96.39
44988;BME280;35735;52.226;21.254;2023-04-26T22:15:15;100230.13;;;3.92;96.91
44988;BME280;35735;52.226;21.254;2023-04-26T22:20:16;100229.97;;;3.85;97.39
44988;BME280;35735;52.226;21.254;2023-04-26T22:25:17;100231.59;;;3.79;97.59
44988;BME280;35735;52.226;21.254;2023-04-26T22:30:17;100244.53;;;3.62;97.86
44988;BME280;35735;52.226;21.254;2023-04-26T22:35:19;100238.09;;;3.53;98.28
44988;BME280;35735;52.226;21.254;2023-04-26T22:40:19;100245.72;;;3.38;98.73
44988;BME280;35735;52.226;21.254;2023-04-26T22:45:20;100245.44;;;3.29;99.23
44988;BME280;35735;52.226;21.254;2023-04-26T22:50:21;100249.88;;;3.28;99.41
44988;BME280;35735;52.226;21.254;2023-04-26T22:55:21;100254.81;;;3.13;99.56
44988;BME280;35735;52.226;21.254;2023-04-26T23:00:22;100270.34;;;2.96;100.00
44988;BME280;35735;52.226;21.254;2023-04-26T23:05:23;100267.41;;;2.87;100.00
44988;BME280;35735;52.226;21.254;2023-04-26T23:10:23;100274.19;;;2.75;100.00
44988;BME280;35735;52.226;21.254;2023-04-26T23:15:24;100286.31;;;2.64;100.00
44988;BME280;35735;52.226;21.254;2023-04-26T23:20:25;100285.13;;;2.54;100.00
44988;BME280;35735;52.226;21.254;2023-04-26T23:25:25;100285.94;;;2.52;100.00
44988;BME280;35735;52.226;21.254;2023-04-26T23:30:26;100294.75;;;2.49;100.00
44988;BME280;35735;52.226;21.254;2023-04-26T23:35:27;100293.66;;;2.43;100.00
44988;BME280;35735;52.226;21.254;2023-04-26T23:40:27;100294.41;;;2.38;100.00
44988;BME280;35735;52.226;21.254;2023-04-26T23:45:28;100294.34;;;2.37;100.00
44988;BME280;35735;52.226;21.254;2023-04-26T23:50:28;100296.12;;;2.36;100.00
44988;BME280;35735;52.226;21.254;2023-04-26T23:55:29;100305.75;;;2.31;100.00
